sensor_id;sensor_type;location;lat;lon;timestamp;P1;durP1;ratioP1;P2;durP2;ratioP2
10059;SDS011;5069;49.306;8.636;2023-09-18T00:00:27;7.05;;;3.20;;
10059;SDS011;5069;49.306;8.636;2023-09-18T00:03:29;7.40;;;2.90;;
10059;SDS011;5069;49.306;8.636;2023-09-18T00:06:32;4.60;;;3.25;;
10059;SDS011;5069;49.306;8.636;2023-09-18T00:09:33;3.58;;;2.83;;
10059;SDS011;5069;49.306;8.636;2023-09-18T00:12:35;4.45;;;2.78;;
10059;SDS011;5069;49.306;8.636;2023-09-18T00:15:37;5.22;;;3.15;;
10059;SDS011;5069;49.306;8.636;2023-09-18T00:18:39;4.55;;;3.33;;
10059;SDS011;5069;49.306;8.636;2023-09-18T00:21:42;3.58;;;3.03;;
10059;SDS011;5069;49.306;8.636;2023-09-18T00:24:43;3.47;;;3.05;;
10059;SDS011;5069;49.306;8.636;2023-09-18T00:27:45;3.65;;;2.78;;
10059;SDS011;5069;49.306;8.636;2023-09-18T00:30:47;3.35;;;2.70;;
10059;SDS011;5069;49.306;8.636;2023-09-18T00:33:50;4.63;;;2.97;;
10059;SDS011;5069;49.306;8.636;2023-09-18T00:36:51;3.60;;;2.83;;
10059;SDS011;5069;49.306;8.636;2023-09-18T00:39:54;4.45;;;2.92;;
10059;SDS011;5069;49.306;8.636;2023-09-18T00:42:56;3.92;;;2.85;;
10059;SDS011;5069;49.306;8.636;2023-09-18T00:45:57;4.47;;;2.90;;
10059;SDS011;5069;49.306;8.636;2023-09-18T00:48:59;3.65;;;2.92;;
10059;SDS011;5069;49.306;8.636;2023-09-18T00:52:01;6.25;;;3.35;;
10059;SDS011;5069;49.306;8.636;2023-09-18T00:55:04;4.35;;;3.22;;
10059;SDS011;5069;49.306;8.636;2023-09-18T00:58:08;7.47;;;3.22;;
10059;SDS011;5069;49.306;8.636;2023-09-18T01:01:10;4.00;;;2.97;;
10059;SDS011;5069;49.306;8.636;2023-09-18T01:04:13;3.28;;;2.88;;
10059;SDS011;5069;49.306;8.636;2023-09-18T01:07:15;3.67;;;2.63;;
10059;SDS011;5069;49.306;8.636;2023-09-18T01:10:16;4.40;;;3.00;;
10059;SDS011;5069;49.306;8.636;2023-09-18T01:13:21;4.90;;;3.40;;
10059;SDS011;5069;49.306;8.636;2023-09-18T01:16:25;3.42;;;2.85;;
10059;SDS011;5069;49.306;8.636;2023-09-18T01:19:37;3.80;;;3.30;;
10059;SDS011;5069;49.306;8.636;2023-09-18T01:22:48;3.35;;;3.00;;
10059;SDS011;5069;49.306;8.636;2023-09-18T01:25:51;4.25;;;3.00;;
10059;SDS011;5069;49.306;8.636;2023-09-18T01:28:52;5.90;;;3.00;;
10059;SDS011;5069;49.306;8.636;2023-09-18T01:31:54;5.57;;;3.63;;
10059;SDS011;5069;49.306;8.636;2023-09-18T01:34:56;4.32;;;3.38;;
10059;SDS011;5069;49.306;8.636;2023-09-18T01:37:59;5.07;;;3.13;;
10059;SDS011;5069;49.306;8.636;2023-09-18T01:41:01;4.67;;;3.30;;
10059;SDS011;5069;49.306;8.636;2023-09-18T01:44:03;5.07;;;3.17;;
10059;SDS011;5069;49.306;8.636;2023-09-18T01:47:07;4.15;;;3.47;;
10059;SDS011;5069;49.306;8.636;2023-09-18T01:50:12;4.55;;;3.30;;
10059;SDS011;5069;49.306;8.636;2023-09-18T01:53:14;7.78;;;4.03;;
10059;SDS011;5069;49.306;8.636;2023-09-18T01:56:16;6.63;;;3.78;;
10059;SDS011;5069;49.306;8.636;2023-09-18T01:59:17;4.30;;;3.83;;
10059;SDS011;5069;49.306;8.636;2023-09-18T02:02:20;10.10;;;4.07;;
10059;SDS011;5069;49.306;8.636;2023-09-18T02:05:42;6.25;;;3.67;;
10059;SDS011;5069;49.306;8.636;2023-09-18T02:08:44;4.00;;;3.70;;
10059;SDS011;5069;49.306;8.636;2023-09-18T02:11:47;4.25;;;3.40;;
10059;SDS011;5069;49.306;8.636;2023-09-18T02:14:49;6.03;;;4.20;;
10059;SDS011;5069;49.306;8.636;2023-09-18T02:17:50;4.50;;;3.50;;
10059;SDS011;5069;49.306;8.636;2023-09-18T02:20:53;5.60;;;3.70;;
10059;SDS011;5069;49.306;8.636;2023-09-18T02:23:55;4.35;;;3.80;;
10059;SDS011;5069;49.306;8.636;2023-09-18T02:26:56;4.50;;;3.83;;
10059;SDS011;5069;49.306;8.636;2023-09-18T02:29:58;5.20;;;3.67;;
10059;SDS011;5069;49.306;8.636;2023-09-18T02:32:59;4.78;;;3.65;;
10059;SDS011;5069;49.306;8.636;2023-09-18T02:36:01;4.65;;;3.92;;
10059;SDS011;5069;49.306;8.636;2023-09-18T02:39:03;6.57;;;3.77;;
10059;SDS011;5069;49.306;8.636;2023-09-18T02:42:05;6.20;;;3.73;;
10059;SDS011;5069;49.306;8.636;2023-09-18T02:45:06;5.25;;;3.90;;
10059;SDS011;5069;49.306;8.636;2023-09-18T02:48:09;4.05;;;3.47;;
10059;SDS011;5069;49.306;8.636;2023-09-18T02:51:11;5.00;;;3.67;;
10059;SDS011;5069;49.306;8.636;2023-09-18T02:54:12;4.82;;;3.40;;
10059;SDS011;5069;49.306;8.636;2023-09-18T02:57:14;3.67;;;3.30;;
10059;SDS011;5069;49.306;8.636;2023-09-18T03:00:15;4.70;;;3.47;;
10059;SDS011;5069;49.306;8.636;2023-09-18T03:03:17;4.67;;;3.40;;
10059;SDS011;5069;49.306;8.636;2023-09-18T03:06:19;4.67;;;3.40;;
10059;SDS011;5069;49.306;8.636;2023-09-18T03:09:21;5.70;;;3.27;;
10059;SDS011;5069;49.306;8.636;2023-09-18T03:12:22;5.80;;;3.07;;
10059;SDS011;5069;49.306;8.636;2023-09-18T03:15:24;4.90;;;3.00;;
10059;SDS011;5069;49.306;8.636;2023-09-18T03:18:26;5.43;;;3.00;;
10059;SDS011;5069;49.306;8.636;2023-09-18T03:21:29;5.33;;;3.40;;
10059;SDS011;5069;49.306;8.636;2023-09-18T03:24:32;7.33;;;3.30;;
10059;SDS011;5069;49.306;8.636;2023-09-18T03:27:33;5.00;;;3.00;;
10059;SDS011;5069;49.306;8.636;2023-09-18T03:30:36;7.85;;;3.40;;
10059;SDS011;5069;49.306;8.636;2023-09-18T03:33:38;8.03;;;3.60;;
10059;SDS011;5069;49.306;8.636;2023-09-18T03:36:39;6.23;;;3.50;;
10059;SDS011;5069;49.306;8.636;2023-09-18T03:39:41;7.27;;;3.33;;
10059;SDS011;5069;49.306;8.636;2023-09-18T03:42:43;6.65;;;3.70;;
10059;SDS011;5069;49.306;8.636;2023-09-18T03:45:44;8.88;;;3.75;;
10059;SDS011;5069;49.306;8.636;2023-09-18T03:48:46;6.27;;;3.40;;
10059;SDS011;5069;49.306;8.636;2023-09-18T03:51:48;9.83;;;3.90;;
10059;SDS011;5069;49.306;8.636;2023-09-18T03:54:49;8.40;;;3.93;;
10059;SDS011;5069;49.306;8.636;2023-09-18T03:57:52;5.43;;;3.60;;
10059;SDS011;5069;49.306;8.636;2023-09-18T04:00:53;8.23;;;3.80;;
10059;SDS011;5069;49.306;8.636;2023-09-18T04:03:55;11.00;;;4.40;;
10059;SDS011;5069;49.306;8.636;2023-09-18T04:06:57;10.57;;;4.23;;
10059;SDS011;5069;49.306;8.636;2023-09-18T04:09:59;11.00;;;3.97;;
10059;SDS011;5069;49.306;8.636;2023-09-18T04:13:00;8.87;;;4.13;;
10059;SDS011;5069;49.306;8.636;2023-09-18T04:16:02;12.77;;;4.37;;
10059;SDS011;5069;49.306;8.636;2023-09-18T04:19:05;15.03;;;4.00;;
10059;SDS011;5069;49.306;8.636;2023-09-18T04:22:07;16.87;;;4.10;;
10059;SDS011;5069;49.306;8.636;2023-09-18T04:25:09;14.33;;;4.60;;
10059;SDS011;5069;49.306;8.636;2023-09-18T04:28:11;10.13;;;3.93;;
10059;SDS011;5069;49.306;8.636;2023-09-18T04:31:13;9.50;;;3.50;;
10059;SDS011;5069;49.306;8.636;2023-09-18T04:34:15;12.60;;;3.83;;
10059;SDS011;5069;49.306;8.636;2023-09-18T04:37:17;10.60;;;3.47;;
10059;SDS011;5069;49.306;8.636;2023-09-18T04:40:18;15.33;;;3.93;;
10059;SDS011;5069;49.306;8.636;2023-09-18T04:43:20;9.70;;;3.10;;
10059;SDS011;5069;49.306;8.636;2023-09-18T04:46:22;15.23;;;3.80;;
10059;SDS011;5069;49.306;8.636;2023-09-18T04:49:25;9.33;;;3.43;;
10059;SDS011;5069;49.306;8.636;2023-09-18T04:52:27;12.87;;;3.90;;
10059;SDS011;5069;49.306;8.636;2023-09-18T04:55:28;12.23;;;3.40;;
10059;SDS011;5069;49.306;8.636;2023-09-18T04:58:31;10.57;;;3.57;;
10059;SDS011;5069;49.306;8.636;2023-09-18T05:01:33;8.13;;;3.23;;
10059;SDS011;5069;49.306;8.636;2023-09-18T05:04:34;11.40;;;3.50;;
10059;SDS011;5069;49.306;8.636;2023-09-18T05:07:36;10.10;;;3.30;;
10059;SDS011;5069;49.306;8.636;2023-09-18T05:10:38;13.63;;;4.23;;
10059;SDS011;5069;49.306;8.636;2023-09-18T05:13:39;12.80;;;3.70;;
10059;SDS011;5069;49.306;8.636;2023-09-18T05:16:41;9.20;;;3.50;;
10059;SDS011;5069;49.306;8.636;2023-09-18T05:19:43;10.30;;;3.37;;
10059;SDS011;5069;49.306;8.636;2023-09-18T05:22:44;10.40;;;3.60;;
10059;SDS011;5069;49.306;8.636;2023-09-18T05:25:47;11.97;;;3.63;;
10059;SDS011;5069;49.306;8.636;2023-09-18T05:28:48;12.83;;;4.00;;
10059;SDS011;5069;49.306;8.636;2023-09-18T05:31:51;10.40;;;3.70;;
10059;SDS011;5069;49.306;8.636;2023-09-18T05:34:53;8.07;;;3.10;;
10059;SDS011;5069;49.306;8.636;2023-09-18T05:37:54;10.13;;;3.50;;
10059;SDS011;5069;49.306;8.636;2023-09-18T05:40:58;8.13;;;3.40;;
10059;SDS011;5069;49.306;8.636;2023-09-18T05:43:59;14.73;;;4.30;;
10059;SDS011;5069;49.306;8.636;2023-09-18T05:47:03;12.27;;;4.20;;
10059;SDS011;5069;49.306;8.636;2023-09-18T05:50:05;12.83;;;3.77;;
10059;SDS011;5069;49.306;8.636;2023-09-18T05:53:08;15.07;;;3.70;;
10059;SDS011;5069;49.306;8.636;2023-09-18T05:56:10;13.33;;;3.50;;
10059;SDS011;5069;49.306;8.636;2023-09-18T05:59:12;11.33;;;3.70;;
10059;SDS011;5069;49.306;8.636;2023-09-18T06:02:13;10.60;;;3.50;;
10059;SDS011;5069;49.306;8.636;2023-09-18T06:05:17;11.00;;;3.20;;
10059;SDS011;5069;49.306;8.636;2023-09-18T06:08:22;9.30;;;3.70;;
10059;SDS011;5069;49.306;8.636;2023-09-18T06:11:25;8.83;;;3.80;;
10059;SDS011;5069;49.306;8.636;2023-09-18T06:14:26;13.47;;;3.60;;
10059;SDS011;5069;49.306;8.636;2023-09-18T06:17:28;8.13;;;3.33;;
10059;SDS011;5069;49.306;8.636;2023-09-18T06:20:29;11.37;;;4.00;;
10059;SDS011;5069;49.306;8.636;2023-09-18T06:23:31;11.43;;;3.87;;
10059;SDS011;5069;49.306;8.636;2023-09-18T06:26:33;7.33;;;3.37;;
10059;SDS011;5069;49.306;8.636;2023-09-18T06:29:35;7.70;;;3.50;;
10059;SDS011;5069;49.306;8.636;2023-09-18T06:32:37;13.77;;;2.97;;
10059;SDS011;5069;49.306;8.636;2023-09-18T06:35:39;11.17;;;3.23;;
10059;SDS011;5069;49.306;8.636;2023-09-18T06:38:41;14.53;;;3.90;;
10059;SDS011;5069;49.306;8.636;2023-09-18T06:41:42;12.67;;;3.40;;
10059;SDS011;5069;49.306;8.636;2023-09-18T06:44:46;8.30;;;3.20;;
10059;SDS011;5069;49.306;8.636;2023-09-18T06:47:48;8.43;;;3.30;;
10059;SDS011;5069;49.306;8.636;2023-09-18T06:50:51;14.63;;;3.53;;
10059;SDS011;5069;49.306;8.636;2023-09-18T06:53:53;8.20;;;3.30;;
10059;SDS011;5069;49.306;8.636;2023-09-18T06:56:55;12.63;;;3.53;;
10059;SDS011;5069;49.306;8.636;2023-09-18T06:59:56;10.57;;;3.67;;
10059;SDS011;5069;49.306;8.636;2023-09-18T07:02:58;14.00;;;3.50;;
10059;SDS011;5069;49.306;8.636;2023-09-18T07:05:59;8.90;;;3.40;;
10059;SDS011;5069;49.306;8.636;2023-09-18T07:09:01;7.97;;;3.50;;
10059;SDS011;5069;49.306;8.636;2023-09-18T07:12:06;7.93;;;3.43;;
10059;SDS011;5069;49.306;8.636;2023-09-18T07:15:07;9.57;;;3.20;;
10059;SDS011;5069;49.306;8.636;2023-09-18T07:18:09;9.30;;;3.50;;
10059;SDS011;5069;49.306;8.636;2023-09-18T07:21:15;11.70;;;3.30;;
10059;SDS011;5069;49.306;8.636;2023-09-18T07:24:17;7.10;;;3.20;;
10059;SDS011;5069;49.306;8.636;2023-09-18T07:27:19;9.50;;;3.07;;
10059;SDS011;5069;49.306;8.636;2023-09-18T07:30:20;8.73;;;3.47;;
10059;SDS011;5069;49.306;8.636;2023-09-18T07:33:23;8.80;;;3.33;;
10059;SDS011;5069;49.306;8.636;2023-09-18T07:36:24;11.37;;;2.80;;
10059;SDS011;5069;49.306;8.636;2023-09-18T07:39:26;6.50;;;2.57;;
10059;SDS011;5069;49.306;8.636;2023-09-18T07:42:30;8.40;;;2.90;;
10059;SDS011;5069;49.306;8.636;2023-09-18T07:45:33;5.27;;;2.17;;
10059;SDS011;5069;49.306;8.636;2023-09-18T07:48:35;6.30;;;2.67;;
10059;SDS011;5069;49.306;8.636;2023-09-18T07:51:38;6.30;;;2.23;;
10059;SDS011;5069;49.306;8.636;2023-09-18T07:54:39;4.07;;;1.80;;
10059;SDS011;5069;49.306;8.636;2023-09-18T07:57:41;9.13;;;2.83;;
10059;SDS011;5069;49.306;8.636;2023-09-18T08:00:42;5.60;;;2.40;;
10059;SDS011;5069;49.306;8.636;2023-09-18T08:03:44;6.80;;;2.03;;
10059;SDS011;5069;49.306;8.636;2023-09-18T08:06:46;5.70;;;1.70;;
10059;SDS011;5069;49.306;8.636;2023-09-18T08:09:48;8.23;;;1.50;;
10059;SDS011;5069;49.306;8.636;2023-09-18T08:12:50;4.40;;;1.50;;
10059;SDS011;5069;49.306;8.636;2023-09-18T08:15:53;5.13;;;1.80;;
10059;SDS011;5069;49.306;8.636;2023-09-18T08:18:55;5.87;;;1.70;;
10059;SDS011;5069;49.306;8.636;2023-09-18T08:21:58;6.53;;;1.80;;
10059;SDS011;5069;49.306;8.636;2023-09-18T08:25:06;4.00;;;1.53;;
10059;SDS011;5069;49.306;8.636;2023-09-18T08:28:12;4.00;;;1.37;;
10059;SDS011;5069;49.306;8.636;2023-09-18T08:31:16;4.17;;;1.50;;
10059;SDS011;5069;49.306;8.636;2023-09-18T08:34:18;5.13;;;1.30;;
10059;SDS011;5069;49.306;8.636;2023-09-18T08:37:22;6.30;;;1.63;;
10059;SDS011;5069;49.306;8.636;2023-09-18T08:40:24;4.03;;;1.30;;
10059;SDS011;5069;49.306;8.636;2023-09-18T08:43:26;2.80;;;1.60;;
10059;SDS011;5069;49.306;8.636;2023-09-18T08:46:30;3.03;;;1.40;;
10059;SDS011;5069;49.306;8.636;2023-09-18T08:49:34;5.17;;;1.30;;
10059;SDS011;5069;49.306;8.636;2023-09-18T08:52:36;2.93;;;1.30;;
10059;SDS011;5069;49.306;8.636;2023-09-18T08:55:39;3.30;;;1.50;;
10059;SDS011;5069;49.306;8.636;2023-09-18T08:58:40;5.03;;;1.53;;
10059;SDS011;5069;49.306;8.636;2023-09-18T09:01:43;3.53;;;1.50;;
10059;SDS011;5069;49.306;8.636;2023-09-18T09:04:45;3.93;;;1.30;;
10059;SDS011;5069;49.306;8.636;2023-09-18T09:07:47;2.03;;;1.20;;
10059;SDS011;5069;49.306;8.636;2023-09-18T09:10:49;4.27;;;1.40;;
10059;SDS011;5069;49.306;8.636;2023-09-18T09:14:08;4.00;;;1.40;;
10059;SDS011;5069;49.306;8.636;2023-09-18T09:17:17;7.67;;;1.70;;
10059;SDS011;5069;49.306;8.636;2023-09-18T09:20:19;4.63;;;1.30;;
10059;SDS011;5069;49.306;8.636;2023-09-18T09:23:21;5.50;;;1.40;;
10059;SDS011;5069;49.306;8.636;2023-09-18T09:26:22;3.63;;;1.30;;
10059;SDS011;5069;49.306;8.636;2023-09-18T09:29:25;2.93;;;1.20;;
10059;SDS011;5069;49.306;8.636;2023-09-18T09:32:29;3.43;;;1.30;;
10059;SDS011;5069;49.306;8.636;2023-09-18T09:35:35;5.80;;;1.40;;
10059;SDS011;5069;49.306;8.636;2023-09-18T09:38:38;3.20;;;1.20;;
10059;SDS011;5069;49.306;8.636;2023-09-18T09:41:44;6.30;;;1.40;;
10059;SDS011;5069;49.306;8.636;2023-09-18T09:44:47;5.53;;;1.27;;
10059;SDS011;5069;49.306;8.636;2023-09-18T09:47:52;4.50;;;1.50;;
10059;SDS011;5069;49.306;8.636;2023-09-18T09:50:58;5.47;;;1.63;;
10059;SDS011;5069;49.306;8.636;2023-09-18T09:54:02;2.27;;;1.70;;
10059;SDS011;5069;49.306;8.636;2023-09-18T09:57:04;4.33;;;1.50;;
10059;SDS011;5069;49.306;8.636;2023-09-18T10:00:06;2.83;;;1.20;;
10059;SDS011;5069;49.306;8.636;2023-09-18T10:03:27;3.80;;;1.40;;
10059;SDS011;5069;49.306;8.636;2023-09-18T10:06:30;6.17;;;1.43;;
10059;SDS011;5069;49.306;8.636;2023-09-18T10:09:35;3.43;;;1.50;;
10059;SDS011;5069;49.306;8.636;2023-09-18T10:12:42;4.80;;;1.50;;
10059;SDS011;5069;49.306;8.636;2023-09-18T10:15:47;5.90;;;1.50;;
10059;SDS011;5069;49.306;8.636;2023-09-18T10:18:56;4.87;;;1.50;;
10059;SDS011;5069;49.306;8.636;2023-09-18T10:25:18;3.23;;;1.50;;
10059;SDS011;5069;49.306;8.636;2023-09-18T10:28:23;3.37;;;1.40;;
10059;SDS011;5069;49.306;8.636;2023-09-18T10:31:29;4.57;;;1.37;;
10059;SDS011;5069;49.306;8.636;2023-09-18T10:34:30;3.40;;;1.37;;
10059;SDS011;5069;49.306;8.636;2023-09-18T10:37:34;2.50;;;1.20;;
10059;SDS011;5069;49.306;8.636;2023-09-18T10:40:37;5.73;;;1.43;;
10059;SDS011;5069;49.306;8.636;2023-09-18T10:43:40;4.53;;;1.73;;
10059;SDS011;5069;49.306;8.636;2023-09-18T10:46:42;4.07;;;1.30;;
10059;SDS011;5069;49.306;8.636;2023-09-18T10:49:43;6.70;;;1.70;;
10059;SDS011;5069;49.306;8.636;2023-09-18T10:52:45;6.83;;;1.53;;
10059;SDS011;5069;49.306;8.636;2023-09-18T10:55:48;3.57;;;1.53;;
10059;SDS011;5069;49.306;8.636;2023-09-18T10:58:58;2.27;;;1.30;;
10059;SDS011;5069;49.306;8.636;2023-09-18T11:02:02;2.27;;;1.40;;
10059;SDS011;5069;49.306;8.636;2023-09-18T11:05:06;4.10;;;1.20;;
10059;SDS011;5069;49.306;8.636;2023-09-18T11:08:27;4.03;;;1.20;;
10059;SDS011;5069;49.306;8.636;2023-09-18T11:11:35;4.93;;;1.37;;
10059;SDS011;5069;49.306;8.636;2023-09-18T11:18:01;4.10;;;1.27;;
10059;SDS011;5069;49.306;8.636;2023-09-18T11:21:10;4.77;;;1.53;;
10059;SDS011;5069;49.306;8.636;2023-09-18T11:24:17;3.23;;;1.20;;
10059;SDS011;5069;49.306;8.636;2023-09-18T11:27:24;3.80;;;1.30;;
10059;SDS011;5069;49.306;8.636;2023-09-18T11:30:26;2.93;;;1.20;;
10059;SDS011;5069;49.306;8.636;2023-09-18T11:36:42;2.57;;;1.20;;
10059;SDS011;5069;49.306;8.636;2023-09-18T11:39:44;4.77;;;1.30;;
10059;SDS011;5069;49.306;8.636;2023-09-18T11:46:20;5.80;;;1.50;;
10059;SDS011;5069;49.306;8.636;2023-09-18T11:49:23;2.80;;;1.03;;
10059;SDS011;5069;49.306;8.636;2023-09-18T11:52:29;1.37;;;1.07;;
10059;SDS011;5069;49.306;8.636;2023-09-18T11:55:31;5.37;;;1.27;;
10059;SDS011;5069;49.306;8.636;2023-09-18T11:58:44;3.07;;;1.30;;
10059;SDS011;5069;49.306;8.636;2023-09-18T12:01:53;2.70;;;1.00;;
10059;SDS011;5069;49.306;8.636;2023-09-18T12:04:56;3.63;;;1.20;;
10059;SDS011;5069;49.306;8.636;2023-09-18T12:07:57;5.37;;;1.27;;
10059;SDS011;5069;49.306;8.636;2023-09-18T12:10:59;3.33;;;1.10;;
10059;SDS011;5069;49.306;8.636;2023-09-18T12:14:01;3.35;;;1.20;;
10059;SDS011;5069;49.306;8.636;2023-09-18T12:17:03;2.45;;;1.00;;
10059;SDS011;5069;49.306;8.636;2023-09-18T12:20:05;4.32;;;1.38;;
10059;SDS011;5069;49.306;8.636;2023-09-18T12:23:07;4.55;;;1.15;;
10059;SDS011;5069;49.306;8.636;2023-09-18T12:26:12;2.88;;;1.20;;
10059;SDS011;5069;49.306;8.636;2023-09-18T12:29:15;1.87;;;1.20;;
10059;SDS011;5069;49.306;8.636;2023-09-18T12:32:17;6.45;;;1.50;;
10059;SDS011;5069;49.306;8.636;2023-09-18T12:35:19;2.47;;;1.10;;
10059;SDS011;5069;49.306;8.636;2023-09-18T12:38:20;3.53;;;1.20;;
10059;SDS011;5069;49.306;8.636;2023-09-18T12:41:26;3.47;;;1.30;;
10059;SDS011;5069;49.306;8.636;2023-09-18T12:44:33;3.47;;;1.10;;
10059;SDS011;5069;49.306;8.636;2023-09-18T12:47:35;2.80;;;1.27;;
10059;SDS011;5069;49.306;8.636;2023-09-18T12:50:40;2.33;;;1.23;;
10059;SDS011;5069;49.306;8.636;2023-09-18T12:53:42;2.78;;;1.35;;
10059;SDS011;5069;49.306;8.636;2023-09-18T12:56:44;1.67;;;1.10;;
10059;SDS011;5069;49.306;8.636;2023-09-18T12:59:46;4.43;;;1.10;;
10059;SDS011;5069;49.306;8.636;2023-09-18T13:02:50;2.33;;;1.10;;
10059;SDS011;5069;49.306;8.636;2023-09-18T13:06:08;2.47;;;1.10;;
10059;SDS011;5069;49.306;8.636;2023-09-18T13:09:17;4.10;;;1.60;;
10059;SDS011;5069;49.306;8.636;2023-09-18T13:12:21;3.37;;;1.10;;
10059;SDS011;5069;49.306;8.636;2023-09-18T13:15:29;4.93;;;1.38;;
10059;SDS011;5069;49.306;8.636;2023-09-18T13:18:32;3.20;;;1.00;;
10059;SDS011;5069;49.306;8.636;2023-09-18T13:21:34;3.35;;;1.20;;
10059;SDS011;5069;49.306;8.636;2023-09-18T13:24:37;2.10;;;1.20;;
10059;SDS011;5069;49.306;8.636;2023-09-18T13:27:39;2.63;;;1.23;;
10059;SDS011;5069;49.306;8.636;2023-09-18T13:30:41;5.53;;;1.43;;
10059;SDS011;5069;49.306;8.636;2023-09-18T13:33:43;3.15;;;1.10;;
10059;SDS011;5069;49.306;8.636;2023-09-18T13:36:46;4.25;;;1.35;;
10059;SDS011;5069;49.306;8.636;2023-09-18T13:39:48;1.07;;;1.00;;
10059;SDS011;5069;49.306;8.636;2023-09-18T13:42:49;5.68;;;1.65;;
10059;SDS011;5069;49.306;8.636;2023-09-18T13:45:51;3.83;;;1.40;;
10059;SDS011;5069;49.306;8.636;2023-09-18T13:48:53;2.00;;;1.10;;
10059;SDS011;5069;49.306;8.636;2023-09-18T13:51:54;3.47;;;0.93;;
10059;SDS011;5069;49.306;8.636;2023-09-18T13:54:58;3.75;;;1.40;;
10059;SDS011;5069;49.306;8.636;2023-09-18T13:58:00;3.63;;;1.42;;
10059;SDS011;5069;49.306;8.636;2023-09-18T14:01:04;3.50;;;1.57;;
10059;SDS011;5069;49.306;8.636;2023-09-18T14:04:06;4.90;;;1.38;;
10059;SDS011;5069;49.306;8.636;2023-09-18T14:07:08;2.67;;;1.27;;
10059;SDS011;5069;49.306;8.636;2023-09-18T14:10:10;2.47;;;1.33;;
10059;SDS011;5069;49.306;8.636;2023-09-18T14:13:12;4.40;;;1.52;;
10059;SDS011;5069;49.306;8.636;2023-09-18T14:16:14;2.55;;;1.30;;
10059;SDS011;5069;49.306;8.636;2023-09-18T14:19:16;4.47;;;1.60;;
10059;SDS011;5069;49.306;8.636;2023-09-18T14:22:18;2.08;;;1.10;;
10059;SDS011;5069;49.306;8.636;2023-09-18T14:25:19;4.63;;;1.33;;
10059;SDS011;5069;49.306;8.636;2023-09-18T14:28:21;3.38;;;1.33;;
10059;SDS011;5069;49.306;8.636;2023-09-18T14:31:23;2.50;;;1.27;;
10059;SDS011;5069;49.306;8.636;2023-09-18T14:34:24;2.17;;;1.25;;
10059;SDS011;5069;49.306;8.636;2023-09-18T14:37:26;2.65;;;1.25;;
10059;SDS011;5069;49.306;8.636;2023-09-18T14:40:27;2.83;;;1.48;;
10059;SDS011;5069;49.306;8.636;2023-09-18T14:43:29;2.90;;;1.40;;
10059;SDS011;5069;49.306;8.636;2023-09-18T14:46:31;3.95;;;1.33;;
10059;SDS011;5069;49.306;8.636;2023-09-18T14:49:36;2.35;;;1.30;;
10059;SDS011;5069;49.306;8.636;2023-09-18T14:52:38;3.38;;;1.10;;
10059;SDS011;5069;49.306;8.636;2023-09-18T14:55:39;3.17;;;1.35;;
10059;SDS011;5069;49.306;8.636;2023-09-18T14:58:41;1.92;;;1.30;;
10059;SDS011;5069;49.306;8.636;2023-09-18T15:01:44;2.67;;;1.40;;
10059;SDS011;5069;49.306;8.636;2023-09-18T15:04:46;2.45;;;1.30;;
10059;SDS011;5069;49.306;8.636;2023-09-18T15:07:48;2.42;;;1.30;;
10059;SDS011;5069;49.306;8.636;2023-09-18T15:10:50;1.92;;;1.15;;
10059;SDS011;5069;49.306;8.636;2023-09-18T15:13:52;1.35;;;1.23;;
10059;SDS011;5069;49.306;8.636;2023-09-18T15:16:53;3.05;;;1.35;;
10059;SDS011;5069;49.306;8.636;2023-09-18T15:19:56;2.60;;;1.20;;
10059;SDS011;5069;49.306;8.636;2023-09-18T15:22:58;2.72;;;1.40;;
10059;SDS011;5069;49.306;8.636;2023-09-18T15:26:00;3.70;;;1.50;;
10059;SDS011;5069;49.306;8.636;2023-09-18T15:29:02;5.43;;;1.70;;
10059;SDS011;5069;49.306;8.636;2023-09-18T15:32:04;3.88;;;1.38;;
10059;SDS011;5069;49.306;8.636;2023-09-18T15:35:07;1.83;;;1.08;;
10059;SDS011;5069;49.306;8.636;2023-09-18T15:38:09;2.75;;;1.30;;
10059;SDS011;5069;49.306;8.636;2023-09-18T15:41:11;2.60;;;1.13;;
10059;SDS011;5069;49.306;8.636;2023-09-18T15:44:15;3.53;;;1.25;;
10059;SDS011;5069;49.306;8.636;2023-09-18T15:47:17;2.65;;;1.23;;
10059;SDS011;5069;49.306;8.636;2023-09-18T15:50:18;3.97;;;1.30;;
10059;SDS011;5069;49.306;8.636;2023-09-18T15:53:20;3.53;;;1.42;;
10059;SDS011;5069;49.306;8.636;2023-09-18T15:56:21;2.38;;;1.20;;
10059;SDS011;5069;49.306;8.636;2023-09-18T15:59:23;1.70;;;1.23;;
10059;SDS011;5069;49.306;8.636;2023-09-18T16:02:25;1.98;;;1.30;;
10059;SDS011;5069;49.306;8.636;2023-09-18T16:05:27;3.40;;;1.40;;
10059;SDS011;5069;49.306;8.636;2023-09-18T16:08:29;4.13;;;1.50;;
10059;SDS011;5069;49.306;8.636;2023-09-18T16:11:31;3.78;;;1.40;;
10059;SDS011;5069;49.306;8.636;2023-09-18T16:14:34;4.00;;;1.60;;
10059;SDS011;5069;49.306;8.636;2023-09-18T16:17:35;1.45;;;1.17;;
10059;SDS011;5069;49.306;8.636;2023-09-18T16:20:37;2.70;;;1.40;;
10059;SDS011;5069;49.306;8.636;2023-09-18T16:23:39;3.72;;;1.38;;
10059;SDS011;5069;49.306;8.636;2023-09-18T16:26:41;2.67;;;1.40;;
10059;SDS011;5069;49.306;8.636;2023-09-18T16:29:43;3.20;;;1.27;;
10059;SDS011;5069;49.306;8.636;2023-09-18T16:32:44;1.85;;;1.38;;
10059;SDS011;5069;49.306;8.636;2023-09-18T16:35:46;3.05;;;1.40;;
10059;SDS011;5069;49.306;8.636;2023-09-18T16:38:48;3.95;;;1.50;;
10059;SDS011;5069;49.306;8.636;2023-09-18T16:41:50;2.17;;;1.35;;
10059;SDS011;5069;49.306;8.636;2023-09-18T16:44:52;4.18;;;1.58;;
10059;SDS011;5069;49.306;8.636;2023-09-18T16:47:54;3.47;;;1.52;;
10059;SDS011;5069;49.306;8.636;2023-09-18T16:50:56;2.80;;;1.52;;
10059;SDS011;5069;49.306;8.636;2023-09-18T16:53:59;5.05;;;1.50;;
10059;SDS011;5069;49.306;8.636;2023-09-18T16:57:00;3.03;;;1.35;;
10059;SDS011;5069;49.306;8.636;2023-09-18T17:00:02;2.88;;;1.27;;
10059;SDS011;5069;49.306;8.636;2023-09-18T17:03:09;2.45;;;1.20;;
10059;SDS011;5069;49.306;8.636;2023-09-18T17:06:11;5.20;;;1.33;;
10059;SDS011;5069;49.306;8.636;2023-09-18T17:09:13;1.95;;;1.30;;
10059;SDS011;5069;49.306;8.636;2023-09-18T17:12:15;1.95;;;1.35;;
10059;SDS011;5069;49.306;8.636;2023-09-18T17:15:19;2.00;;;1.40;;
10059;SDS011;5069;49.306;8.636;2023-09-18T17:18:24;5.68;;;1.48;;
10059;SDS011;5069;49.306;8.636;2023-09-18T17:21:26;2.15;;;1.40;;
10059;SDS011;5069;49.306;8.636;2023-09-18T17:24:27;2.40;;;1.38;;
10059;SDS011;5069;49.306;8.636;2023-09-18T17:27:29;2.38;;;1.40;;
10059;SDS011;5069;49.306;8.636;2023-09-18T17:30:30;3.53;;;1.45;;
10059;SDS011;5069;49.306;8.636;2023-09-18T17:33:32;2.55;;;1.30;;
10059;SDS011;5069;49.306;8.636;2023-09-18T17:36:34;2.63;;;1.40;;
10059;SDS011;5069;49.306;8.636;2023-09-18T17:39:38;10.82;;;1.52;;
10059;SDS011;5069;49.306;8.636;2023-09-18T17:42:40;4.63;;;1.08;;
10059;SDS011;5069;49.306;8.636;2023-09-18T17:45:41;4.43;;;1.20;;
10059;SDS011;5069;49.306;8.636;2023-09-18T17:48:43;4.03;;;1.10;;
10059;SDS011;5069;49.306;8.636;2023-09-18T17:51:45;3.13;;;1.30;;
10059;SDS011;5069;49.306;8.636;2023-09-18T17:54:47;2.00;;;1.23;;
10059;SDS011;5069;49.306;8.636;2023-09-18T17:57:48;1.03;;;0.90;;
10059;SDS011;5069;49.306;8.636;2023-09-18T18:00:59;4.33;;;1.37;;
10059;SDS011;5069;49.306;8.636;2023-09-18T18:04:02;3.00;;;1.10;;
10059;SDS011;5069;49.306;8.636;2023-09-18T18:07:04;4.50;;;1.17;;
10059;SDS011;5069;49.306;8.636;2023-09-18T18:10:06;5.00;;;1.40;;
10059;SDS011;5069;49.306;8.636;2023-09-18T18:13:09;3.40;;;0.90;;
10059;SDS011;5069;49.306;8.636;2023-09-18T18:16:12;2.47;;;1.17;;
10059;SDS011;5069;49.306;8.636;2023-09-18T18:19:13;4.93;;;1.37;;
10059;SDS011;5069;49.306;8.636;2023-09-18T18:22:21;2.37;;;1.40;;
10059;SDS011;5069;49.306;8.636;2023-09-18T18:25:23;3.10;;;1.23;;
10059;SDS011;5069;49.306;8.636;2023-09-18T18:28:25;3.10;;;1.20;;
10059;SDS011;5069;49.306;8.636;2023-09-18T18:31:26;4.63;;;1.10;;
10059;SDS011;5069;49.306;8.636;2023-09-18T18:34:30;1.30;;;0.80;;
10059;SDS011;5069;49.306;8.636;2023-09-18T18:37:36;5.87;;;1.03;;
10059;SDS011;5069;49.306;8.636;2023-09-18T18:40:37;3.40;;;1.17;;
10059;SDS011;5069;49.306;8.636;2023-09-18T18:43:44;5.40;;;0.80;;
10059;SDS011;5069;49.306;8.636;2023-09-18T18:46:47;2.17;;;0.90;;
10059;SDS011;5069;49.306;8.636;2023-09-18T18:49:49;1.80;;;0.77;;